Time;durP1;ratioP1;P1;durP2;ratioP2;P2;SDS_P1;SDS_P2;PMS_P1;PMS_P2;Temp;Humidity;BMP_temperature;BMP_pressure;BME280_temperature;BME280_humidity;BME280_pressure;Samples;Min_cycle;Max_cycle;Signal;HPM_P1;HPM_P2
2022/02/23 00:00:32;;;;;;;;;11.50;6.50;;;;;;;;4995552;28;45357;-74
2022/02/23 00:02:58;;;;;;;;;6.00;6.00;;;;;;;;4995759;28;45486;-74
2022/02/23 00:05:24;;;;;;;;;7.75;6.75;;;;;;;;4996727;28;45413;-73
2022/02/23 00:07:49;;;;;;;;;9.00;6.75;;;;;;;;4997795;28;45382;-74
2022/02/23 00:10:15;;;;;;;;;8.00;5.00;;;;;;;;4996768;28;45474;-75
2022/02/23 00:12:40;;;;;;;;;6.75;5.75;;;;;;;;4996767;28;45488;-74
2022/02/23 00:15:06;;;;;;;;;6.75;5.25;;;;;;;;4996749;28;45662;-75
2022/02/23 00:17:31;;;;;;;;;5.50;5.25;;;;;;;;4996865;28;45318;-76
2022/02/23 00:19:57;;;;;;;;;7.00;4.50;;;;;;;;4997035;28;45515;-75
2022/02/23 00:22:22;;;;;;;;;4.00;4.00;;;;;;;;4996453;28;46954;-76
2022/02/23 00:24:47;;;;;;;;;4.00;4.00;;;;;;;;4996269;28;45421;-74
2022/02/23 00:27:13;;;;;;;;;7.75;4.75;;;;;;;;4996173;28;45270;-74
2022/02/23 00:29:38;;;;;;;;;7.00;5.75;;;;;;;;4996754;28;45437;-74
2022/02/23 00:32:04;;;;;;;;;9.00;6.00;;;;;;;;4997237;28;45490;-74
2022/02/23 00:34:29;;;;;;;;;7.50;5.50;;;;;;;;4996148;28;45274;-75
2022/02/23 00:36:55;;;;;;;;;9.75;9.75;;;;;;;;4996450;28;45639;-74
2022/02/23 00:39:20;;;;;;;;;7.25;6.75;;;;;;;;4996724;28;45477;-74
2022/02/23 00:41:46;;;;;;;;;5.75;5.50;;;;;;;;4996362;28;46296;-74
2022/02/23 00:44:11;;;;;;;;;6.25;5.25;;;;;;;;4996931;28;45516;-72
2022/02/23 00:46:36;;;;;;;;;9.75;8.75;;;;;;;;4997078;28;45443;-73
2022/02/23 00:49:01;;;;;;;;;7.25;5.50;;;;;;;;5011450;28;45501;-73
2022/02/23 00:51:26;;;;;;;;;7.00;7.00;;;;;;;;4996293;28;46139;-74
2022/02/23 00:53:52;;;;;;;;;7.25;6.25;;;;;;;;4996516;28;45551;-73
2022/02/23 00:56:17;;;;;;;;;6.75;5.25;;;;;;;;4996564;28;45415;-73
2022/02/23 00:58:42;;;;;;;;;6.00;5.00;;;;;;;;4978821;28;45533;-72
2022/02/23 01:01:07;;;;;;;;;6.00;5.00;;;;;;;;4995891;28;46065;-72
2022/02/23 01:03:33;;;;;;;;;8.00;7.00;;;;;;;;4995725;28;45475;-73
2022/02/23 01:05:58;;;;;;;;;6.25;5.75;;;;;;;;4996128;28;45482;-73
2022/02/23 01:08:23;;;;;;;;;5.50;3.00;;;;;;;;4995166;28;45436;-74
2022/02/23 01:10:48;;;;;;;;;7.50;5.50;;;;;;;;4996704;28;45992;-74
2022/02/23 01:13:13;;;;;;;;;7.50;6.00;;;;;;;;4996125;28;45427;-74
2022/02/23 01:15:39;;;;;;;;;6.00;6.00;;;;;;;;4996363;28;45334;-74
2022/02/23 01:18:04;;;;;;;;;5.50;3.25;;;;;;;;4995739;28;45459;-74
2022/02/23 01:20:29;;;;;;;;;10.75;5.00;;;;;;;;4995674;28;49046;-74
2022/02/23 01:22:59;;;;;;;;;6.25;5.00;;;;;;;;4996442;28;45333;-74
2022/02/23 01:25:25;;;;;;;;;7.50;6.50;;;;;;;;4995931;28;45404;-74
2022/02/23 01:27:50;;;;;;;;;5.75;5.00;;;;;;;;4995847;28;45572;-74
2022/02/23 01:30:15;;;;;;;;;8.75;7.50;;;;;;;;4995313;28;47134;-76
2022/02/23 01:32:40;;;;;;;;;7.75;5.50;;;;;;;;4995610;28;45479;-75
2022/02/23 01:35:06;;;;;;;;;5.75;5.50;;;;;;;;4996283;28;45488;-75
2022/02/23 01:37:31;;;;;;;;;7.75;4.00;;;;;;;;4996244;28;45607;-75
2022/02/23 01:39:56;;;;;;;;;6.25;6.25;;;;;;;;4995459;28;45496;-75
2022/02/23 01:42:21;;;;;;;;;6.25;5.75;;;;;;;;4995615;28;45420;-75
2022/02/23 01:44:47;;;;;;;;;9.00;4.00;;;;;;;;4995993;28;45373;-75
2022/02/23 01:47:12;;;;;;;;;7.75;4.50;;;;;;;;4995250;28;45492;-73
2022/02/23 01:49:37;;;;;;;;;6.50;5.25;;;;;;;;4995960;28;46983;-73
2022/02/23 01:52:03;;;;;;;;;8.50;7.75;;;;;;;;4995689;28;45491;-73
2022/02/23 01:54:28;;;;;;;;;11.25;6.25;;;;;;;;4995609;28;45480;-73
2022/02/23 01:56:53;;;;;;;;;9.00;5.75;;;;;;;;4995846;28;45504;-75
2022/02/23 01:59:18;;;;;;;;;7.00;7.00;;;;;;;;4995442;28;45940;-73
2022/02/23 02:01:44;;;;;;;;;6.25;5.25;;;;;;;;4995479;28;45476;-74
2022/02/23 02:04:09;;;;;;;;;6.00;4.00;;;;;;;;4995448;28;45492;-74
2022/02/23 02:06:34;;;;;;;;;5.75;5.00;;;;;;;;4995229;28;45463;-74
2022/02/23 02:09:00;;;;;;;;;7.00;6.00;;;;;;;;4995329;28;46146;-74
2022/02/23 02:11:25;;;;;;;;;5.00;4.00;;;;;;;;4995559;28;45329;-73
2022/02/23 02:13:50;;;;;;;;;8.50;6.00;;;;;;;;4996269;28;45258;-73
2022/02/23 02:16:15;;;;;;;;;16.75;15.75;;;;;;;;4995249;28;45404;-73
2022/02/23 02:18:40;;;;;;;;;10.50;8.50;;;;;;;;4994630;28;45913;-74
2022/02/23 02:21:06;;;;;;;;;4.75;4.00;;;;;;;;4995132;28;45524;-74
2022/02/23 02:23:31;;;;;;;;;5.00;5.00;;;;;;;;4995032;28;45298;-75
2022/02/23 02:25:56;;;;;;;;;6.25;4.75;;;;;;;;4995794;28;45322;-77
2022/02/23 02:28:21;;;;;;;;;8.50;6.50;;;;;;;;4994941;28;45513;-76
2022/02/23 02:30:46;;;;;;;;;8.50;6.75;;;;;;;;4994556;28;45236;-75
2022/02/23 02:33:12;;;;;;;;;7.75;4.25;;;;;;;;4995214;28;45207;-74
2022/02/23 02:35:38;;;;;;;;;4.50;4.00;;;;;;;;4995189;28;45282;-75
2022/02/23 02:38:04;;;;;;;;;6.50;6.00;;;;;;;;4995576;28;46114;-75
2022/02/23 02:40:30;;;;;;;;;6.50;4.00;;;;;;;;4994813;28;45440;-76
2022/02/23 02:42:55;;;;;;;;;6.00;3.00;;;;;;;;4994903;28;45476;-76
2022/02/23 02:45:21;;;;;;;;;7.00;5.25;;;;;;;;4994911;28;45375;-75
2022/02/23 02:47:46;;;;;;;;;7.75;6.75;;;;;;;;4994972;28;46112;-73
2022/02/23 02:50:12;;;;;;;;;7.00;5.50;;;;;;;;4995152;28;45550;-73
2022/02/23 02:52:37;;;;;;;;;7.75;4.25;;;;;;;;4977627;28;45337;-74
2022/02/23 02:55:03;;;;;;;;;5.50;5.00;;;;;;;;4994609;28;45434;-73
2022/02/23 02:57:28;;;;;;;;;8.25;6.00;;;;;;;;4994592;28;46302;-74
2022/02/23 02:59:54;;;;;;;;;6.25;5.75;;;;;;;;4994045;28;45474;-73
2022/02/23 03:02:19;;;;;;;;;7.50;6.75;;;;;;;;4994997;28;45429;-73
2022/02/23 03:04:44;;;;;;;;;6.00;4.00;;;;;;;;4995309;28;45352;-73
2022/02/23 03:07:09;;;;;;;;;7.00;6.00;;;;;;;;4994435;28;45970;-73
2022/02/23 03:09:34;;;;;;;;;10.00;6.75;;;;;;;;5008763;28;45513;-73
2022/02/23 03:12:00;;;;;;;;;6.00;4.00;;;;;;;;4994692;28;45357;-72
2022/02/23 03:14:25;;;;;;;;;8.75;4.75;;;;;;;;4994708;28;45797;-74
2022/02/23 03:16:50;;;;;;;;;5.75;5.75;;;;;;;;4995276;28;46119;-73
2022/02/23 03:19:16;;;;;;;;;4.50;3.75;;;;;;;;4994428;28;45659;-76
2022/02/23 03:21:41;;;;;;;;;9.00;6.50;;;;;;;;4994480;28;45227;-75
2022/02/23 03:24:07;;;;;;;;;5.25;4.00;;;;;;;;4994255;28;45349;-74
2022/02/23 03:26:32;;;;;;;;;7.00;5.00;;;;;;;;4978623;28;45387;-75
2022/02/23 03:28:57;;;;;;;;;6.25;4.50;;;;;;;;4994475;28;45374;-75
2022/02/23 03:31:22;;;;;;;;;5.75;5.25;;;;;;;;4996334;28;45598;-72
2022/02/23 03:33:48;;;;;;;;;5.75;5.75;;;;;;;;4997618;28;45506;-74
2022/02/23 03:36:14;;;;;;;;;6.50;6.50;;;;;;;;4997420;28;46958;-72
2022/02/23 03:38:39;;;;;;;;;8.50;6.50;;;;;;;;4997787;28;45480;-73
2022/02/23 03:41:05;;;;;;;;;7.75;5.75;;;;;;;;4998065;28;45786;-73
2022/02/23 03:43:31;;;;;;;;;7.00;4.75;;;;;;;;4997207;28;45598;-76
2022/02/23 03:45:56;;;;;;;;;5.00;5.00;;;;;;;;4996866;28;46928;-76
2022/02/23 03:48:21;;;;;;;;;7.50;6.25;;;;;;;;5012428;28;45498;-77
2022/02/23 03:50:46;;;;;;;;;5.75;4.50;;;;;;;;4997708;28;45402;-76
2022/02/23 03:53:12;;;;;;;;;7.00;6.00;;;;;;;;4997298;28;45377;-76
2022/02/23 03:55:37;;;;;;;;;10.50;7.00;;;;;;;;4997622;28;46176;-76
2022/02/23 03:58:02;;;;;;;;;7.00;5.00;;;;;;;;4996677;28;45464;-75
2022/02/23 04:00:28;;;;;;;;;6.50;5.25;;;;;;;;4997234;28;45380;-76
2022/02/23 04:02:53;;;;;;;;;4.00;3.00;;;;;;;;4997046;28;45444;-76
2022/02/23 04:05:18;;;;;;;;;7.00;7.00;;;;;;;;4979561;28;46203;-76
2022/02/23 04:07:43;;;;;;;;;7.00;4.75;;;;;;;;4995597;28;45374;-77
2022/02/23 04:10:09;;;;;;;;;7.00;5.25;;;;;;;;4996598;28;45414;-76
2022/02/23 04:12:35;;;;;;;;;4.50;4.00;;;;;;;;4996541;28;45705;-76
2022/02/23 04:15:00;;;;;;;;;9.25;4.50;;;;;;;;4996952;28;45515;-75
2022/02/23 04:17:25;;;;;;;;;4.75;4.50;;;;;;;;4996817;28;45321;-77
2022/02/23 04:19:50;;;;;;;;;7.25;6.25;;;;;;;;4997066;28;45306;-77
2022/02/23 04:22:16;;;;;;;;;7.25;5.00;;;;;;;;4996858;28;45492;-77
2022/02/23 04:24:41;;;;;;;;;6.50;6.50;;;;;;;;4996774;28;45274;-77
2022/02/23 04:27:06;;;;;;;;;9.00;6.00;;;;;;;;4996251;28;45501;-77
2022/02/23 04:29:32;;;;;;;;;6.50;6.50;;;;;;;;4981158;28;45322;-76
2022/02/23 04:31:58;;;;;;;;;5.75;5.75;;;;;;;;4997518;28;45238;-76
2022/02/23 04:34:23;;;;;;;;;10.25;7.00;;;;;;;;4996917;28;47077;-77
2022/02/23 04:36:49;;;;;;;;;8.75;6.00;;;;;;;;5011628;28;47078;-77
2022/02/23 04:39:14;;;;;;;;;9.50;6.75;;;;;;;;4996375;28;45396;-77
2022/02/23 04:41:39;;;;;;;;;6.00;6.00;;;;;;;;4996131;28;45181;-73
2022/02/23 04:44:06;;;;;;;;;7.25;7.00;;;;;;;;4996292;28;46749;-74
2022/02/23 04:46:31;;;;;;;;;11.50;10.25;;;;;;;;4996515;28;45459;-74
2022/02/23 04:48:56;;;;;;;;;8.25;6.50;;;;;;;;4996589;28;45412;-75
2022/02/23 04:51:23;;;;;;;;;6.50;6.00;;;;;;;;4996547;28;45397;-74
2022/02/23 04:53:49;;;;;;;;;4.50;3.25;;;;;;;;4996454;28;46270;-74
2022/02/23 04:56:14;;;;;;;;;9.25;6.00;;;;;;;;4995921;28;45532;-75
2022/02/23 04:58:39;;;;;;;;;6.25;5.75;;;;;;;;4996392;28;45403;-75
2022/02/23 05:01:05;;;;;;;;;6.25;4.25;;;;;;;;4995913;28;45452;-75
2022/02/23 05:03:31;;;;;;;;;11.75;6.75;;;;;;;;4995342;28;47018;-75
2022/02/23 05:05:59;;;;;;;;;13.25;6.00;;;;;;;;4995794;28;45450;-74
2022/02/23 05:08:24;;;;;;;;;5.50;4.50;;;;;;;;4995341;28;45367;-72
2022/02/23 05:10:49;;;;;;;;;9.75;6.75;;;;;;;;4995391;28;45462;-74
2022/02/23 05:13:15;;;;;;;;;6.25;4.75;;;;;;;;4995607;28;46935;-74
2022/02/23 05:15:40;;;;;;;;;10.00;5.50;;;;;;;;4995668;28;45557;-74
2022/02/23 05:18:06;;;;;;;;;3.00;1.25;;;;;;;;4995653;28;45429;-74
2022/02/23 05:20:31;;;;;;;;;10.00;6.25;;;;;;;;4995446;28;45349;-73
2022/02/23 05:22:56;;;;;;;;;12.00;6.75;;;;;;;;4995681;28;45376;-74
2022/02/23 05:25:23;;;;;;;;;8.50;5.75;;;;;;;;4994421;28;45456;-75
2022/02/23 05:27:49;;;;;;;;;10.50;5.25;;;;;;;;4995161;28;45282;-74
2022/02/23 05:30:14;;;;;;;;;12.25;6.75;;;;;;;;4994995;28;45375;-75
2022/02/23 05:32:39;;;;;;;;;11.00;7.50;;;;;;;;5010622;28;46267;-76
2022/02/23 05:35:05;;;;;;;;;67.00;52.67;;;;;;;;4991091;28;45330;-74
2022/02/23 05:37:30;;;;;;;;;8.25;7.00;;;;;;;;4994655;28;45508;-74
2022/02/23 05:39:55;;;;;;;;;7.00;6.00;;;;;;;;4994723;28;45497;-74
2022/02/23 05:42:21;;;;;;;;;6.25;6.25;;;;;;;;4994661;28;46982;-75
2022/02/23 05:44:46;;;;;;;;;14.25;9.00;;;;;;;;4995243;28;45543;-75
2022/02/23 05:47:11;;;;;;;;;17.75;11.75;;;;;;;;4995227;28;45485;-75
2022/02/23 05:49:36;;;;;;;;;8.25;6.75;;;;;;;;4995510;28;45348;-75
2022/02/23 05:52:01;;;;;;;;;8.25;7.25;;;;;;;;4993811;28;45369;-75
2022/02/23 05:54:27;;;;;;;;;15.50;12.50;;;;;;;;4993676;28;45299;-75
2022/02/23 05:56:54;;;;;;;;;16.75;13.50;;;;;;;;4995069;28;45291;-74
2022/02/23 05:59:19;;;;;;;;;14.25;13.00;;;;;;;;4994192;28;45466;-74
2022/02/23 06:01:45;;;;;;;;;11.25;10.00;;;;;;;;4994447;28;46289;-74
2022/02/23 06:04:10;;;;;;;;;12.00;12.00;;;;;;;;4994332;28;45392;-76
2022/02/23 06:06:35;;;;;;;;;24.50;18.50;;;;;;;;4993403;28;45382;-76
2022/02/23 06:09:00;;;;;;;;;12.50;8.25;;;;;;;;4976147;28;45388;-75
2022/02/23 06:11:26;;;;;;;;;14.50;13.50;;;;;;;;4994157;28;46025;-74
2022/02/23 06:13:51;;;;;;;;;8.25;7.00;;;;;;;;4994905;28;45396;-74
2022/02/23 06:16:17;;;;;;;;;16.75;13.00;;;;;;;;4993989;28;45480;-75
2022/02/23 06:18:42;;;;;;;;;8.50;8.50;;;;;;;;4993483;28;45439;-74
2022/02/23 06:21:07;;;;;;;;;18.75;13.25;;;;;;;;4992782;28;46282;-73
2022/02/23 06:23:33;;;;;;;;;9.75;8.50;;;;;;;;4994283;28;45442;-74
2022/02/23 06:25:58;;;;;;;;;14.75;13.25;;;;;;;;4994927;28;45445;-74
2022/02/23 06:28:23;;;;;;;;;14.50;14.50;;;;;;;;4993147;28;45401;-75
2022/02/23 06:30:49;;;;;;;;;16.25;15.50;;;;;;;;4993543;28;46357;-73
2022/02/23 06:33:18;;;;;;;;;12.50;11.00;;;;;;;;4993315;28;45308;-74
2022/02/23 06:35:43;;;;;;;;;14.00;12.75;;;;;;;;4993635;28;45619;-75
2022/02/23 06:38:08;;;;;;;;;14.75;11.00;;;;;;;;4993604;28;45442;-76
2022/02/23 06:40:34;;;;;;;;;14.25;10.00;;;;;;;;4993907;28;45427;-75
2022/02/23 06:42:59;;;;;;;;;12.00;12.00;;;;;;;;4993341;28;45266;-76
2022/02/23 06:45:25;;;;;;;;;16.50;14.00;;;;;;;;4993124;28;45317;-75
2022/02/23 06:47:50;;;;;;;;;17.00;11.75;;;;;;;;4993115;28;45465;-75
2022/02/23 06:50:16;;;;;;;;;18.75;14.50;;;;;;;;4992927;28;45542;-75
2022/02/23 06:52:41;;;;;;;;;19.75;15.75;;;;;;;;4975446;28;45519;-75
2022/02/23 06:55:07;;;;;;;;;13.00;12.00;;;;;;;;4992891;28;45452;-75
2022/02/23 06:57:40;;;;;;;;;13.50;12.00;;;;;;;;4992548;28;45462;-75
2022/02/23 07:00:06;;;;;;;;;20.50;16.00;;;;;;;;4992445;28;47686;-75
2022/02/23 07:02:32;;;;;;;;;19.25;16.00;;;;;;;;4992516;28;45487;-75
2022/02/23 07:04:57;;;;;;;;;19.50;14.75;;;;;;;;4992751;28;45413;-75
2022/02/23 07:07:22;;;;;;;;;18.50;14.00;;;;;;;;4974608;28;45570;-75
2022/02/23 07:09:47;;;;;;;;;18.25;15.25;;;;;;;;4992085;28;46414;-76
2022/02/23 07:12:12;;;;;;;;;15.75;14.50;;;;;;;;4992784;28;45466;-76
2022/02/23 07:14:38;;;;;;;;;18.00;16.25;;;;;;;;4993893;28;45341;-77
2022/02/23 07:17:03;;;;;;;;;21.25;18.00;;;;;;;;4989076;28;45441;-76
2022/02/23 07:19:28;;;;;;;;;18.25;17.25;;;;;;;;4991992;28;46133;-75
2022/02/23 07:21:53;;;;;;;;;21.50;17.25;;;;;;;;5008286;28;45330;-76
2022/02/23 07:24:19;;;;;;;;;20.50;19.50;;;;;;;;4985199;28;45467;-74
2022/02/23 07:26:44;;;;;;;;;16.00;15.00;;;;;;;;4991394;28;45486;-75
2022/02/23 07:29:11;;;;;;;;;22.00;17.25;;;;;;;;4992485;28;46335;-77
2022/02/23 07:31:36;;;;;;;;;32.50;21.00;;;;;;;;4992118;28;45356;-77
2022/02/23 07:34:01;;;;;;;;;17.50;15.75;;;;;;;;4982840;28;45418;-77
2022/02/23 07:36:27;;;;;;;;;27.75;23.50;;;;;;;;4981343;28;45341;-79
2022/02/23 07:38:53;;;;;;;;;24.50;21.50;;;;;;;;4983222;28;47063;-79
2022/02/23 07:41:23;;;;;;;;;28.25;24.50;;;;;;;;4991926;28;45393;-78
2022/02/23 07:43:52;;;;;;;;;28.50;23.75;;;;;;;;4991595;28;45291;-77
2022/02/23 07:46:17;;;;;;;;;29.50;23.75;;;;;;;;4993432;28;45482;-77
2022/02/23 07:48:44;;;;;;;;;39.25;30.00;;;;;;;;4987935;28;45353;-77
2022/02/23 07:51:10;;;;;;;;;30.50;27.00;;;;;;;;4989970;28;45491;-77
2022/02/23 07:53:35;;;;;;;;;29.00;27.75;;;;;;;;4975561;28;45535;-78
2022/02/23 07:56:00;;;;;;;;;33.75;25.50;;;;;;;;4986063;28;45592;-79
2022/02/23 07:58:25;;;;;;;;;35.25;25.75;;;;;;;;5006995;28;47284;-79
2022/02/23 08:00:51;;;;;;;;;30.25;27.75;;;;;;;;4991540;28;45502;-79
2022/02/23 08:03:16;;;;;;;;;38.00;32.50;;;;;;;;4985700;28;45644;-78
2022/02/23 08:05:42;;;;;;;;;31.75;26.50;;;;;;;;4988305;28;45429;-79
2022/02/23 08:08:08;;;;;;;;;25.25;23.50;;;;;;;;4982020;28;45366;-79
2022/02/23 08:10:33;;;;;;;;;35.25;28.00;;;;;;;;4990235;28;45558;-78
2022/02/23 08:12:58;;;;;;;;;38.00;27.50;;;;;;;;4989943;28;45482;-79
2022/02/23 08:20:52;;;;;;;;;33.00;26.00;;;;;;;;4989358;28;45433;-77
2022/02/23 08:23:17;;;;;;;;;30.75;27.00;;;;;;;;4994359;28;45413;-77
2022/02/23 08:25:43;;;;;;;;;38.50;24.50;;;;;;;;4992144;28;45569;-78
2022/02/23 08:28:08;;;;;;;;;28.75;24.75;;;;;;;;4991836;28;45526;-76
2022/02/23 08:30:34;;;;;;;;;33.00;28.75;;;;;;;;4990639;28;45342;-77
2022/02/23 08:33:02;;;;;;;;;36.00;30.75;;;;;;;;4991229;28;45485;-79
2022/02/23 08:35:28;;;;;;;;;38.00;29.75;;;;;;;;4992852;28;45736;-77
2022/02/23 08:37:53;;;;;;;;;33.50;29.50;;;;;;;;4994438;28;45954;-79
2022/02/23 08:40:18;;;;;;;;;37.00;32.50;;;;;;;;4991222;28;45572;-78
2022/02/23 08:42:44;;;;;;;;;39.25;31.25;;;;;;;;4990461;28;45393;-79
2022/02/23 08:45:09;;;;;;;;;32.50;28.25;;;;;;;;4990636;28;45294;-79
2022/02/23 08:47:34;;;;;;;;;31.75;25.50;;;;;;;;4991400;28;46084;-80
2022/02/23 08:50:00;;;;;;;;;35.00;31.75;;;;;;;;4994647;28;45244;-81
2022/02/23 08:52:25;;;;;;;;;44.50;35.00;;;;;;;;4992785;28;45241;-79
2022/02/23 08:54:50;;;;;;;;;34.25;29.50;;;;;;;;4991790;28;45479;-79
2022/02/23 08:57:15;;;;;;;;;43.50;34.50;;;;;;;;4990585;28;46293;-80
2022/02/23 08:59:41;;;;;;;;;36.75;29.50;;;;;;;;4991015;28;45449;-77
2022/02/23 09:02:06;;;;;;;;;42.50;35.00;;;;;;;;4994081;28;45436;-77
2022/02/23 09:04:31;;;;;;;;;36.00;31.25;;;;;;;;4993692;28;45282;-81
2022/02/23 09:06:57;;;;;;;;;42.00;31.25;;;;;;;;4991658;28;47076;-78
2022/02/23 09:09:22;;;;;;;;;36.25;29.75;;;;;;;;4991226;28;45414;-78
2022/02/23 09:11:47;;;;;;;;;44.00;34.75;;;;;;;;4992564;28;45364;-73
2022/02/23 09:14:13;;;;;;;;;47.50;36.25;;;;;;;;4993624;28;45363;-73
2022/02/23 09:16:39;;;;;;;;;38.00;32.00;;;;;;;;4993073;28;47091;-73
2022/02/23 09:19:05;;;;;;;;;44.25;36.00;;;;;;;;4991439;28;45551;-74
2022/02/23 09:21:30;;;;;;;;;35.75;29.25;;;;;;;;4990744;28;45392;-75
2022/02/23 09:23:56;;;;;;;;;39.50;33.75;;;;;;;;4991200;28;45325;-75
2022/02/23 09:26:21;;;;;;;;;43.25;34.00;;;;;;;;4992762;28;47245;-74
2022/02/23 09:28:46;;;;;;;;;51.50;37.50;;;;;;;;4991256;28;45330;-74
2022/02/23 09:31:13;;;;;;;;;45.00;37.25;;;;;;;;4989147;28;45408;-75
2022/02/23 09:33:39;;;;;;;;;33.50;22.75;;;;;;;;4990255;28;45435;-74
2022/02/23 09:36:04;;;;;;;;;44.25;35.50;;;;;;;;4989900;28;47058;-75
2022/02/23 09:38:30;;;;;;;;;45.50;33.75;;;;;;;;4991423;28;45319;-73
2022/02/23 09:40:57;;;;;;;;;44.75;36.25;;;;;;;;4994353;28;45384;-74
2022/02/23 09:43:22;;;;;;;;;40.50;33.75;;;;;;;;4990056;28;45442;-75
2022/02/23 09:45:53;;;;;;;;;44.50;33.50;;;;;;;;4985580;28;45473;-76
2022/02/23 09:48:19;;;;;;;;;38.75;36.75;;;;;;;;4990144;28;45850;-77
2022/02/23 09:50:45;;;;;;;;;43.50;34.75;;;;;;;;4994914;28;45627;-74
2022/02/23 09:53:11;;;;;;;;;42.75;35.50;;;;;;;;4993114;28;45824;-74
2022/02/23 09:55:36;;;;;;;;;31.50;28.00;;;;;;;;4994060;28;46183;-75
2022/02/23 09:58:01;;;;;;;;;37.00;31.25;;;;;;;;4994090;28;45388;-75
2022/02/23 10:00:28;;;;;;;;;38.50;33.50;;;;;;;;4993066;28;45464;-75
2022/02/23 10:02:54;;;;;;;;;42.00;32.50;;;;;;;;4993783;28;45460;-75
2022/02/23 10:05:21;;;;;;;;;47.75;35.50;;;;;;;;4992462;28;45505;-75
2022/02/23 10:07:46;;;;;;;;;44.00;35.00;;;;;;;;4990642;28;45332;-77
2022/02/23 10:10:13;;;;;;;;;43.50;33.75;;;;;;;;4992169;28;45335;-76
2022/02/23 10:12:41;;;;;;;;;36.50;28.00;;;;;;;;4993290;28;45430;-74
2022/02/23 10:15:13;;;;;;;;;43.00;35.00;;;;;;;;4992807;28;46013;-74
2022/02/23 10:17:39;;;;;;;;;40.25;32.50;;;;;;;;4978392;28;45566;-75
2022/02/23 10:20:19;;;;;;;;;39.75;33.25;;;;;;;;4993476;28;45454;-75
2022/02/23 10:22:45;;;;;;;;;31.00;25.50;;;;;;;;4993279;28;45561;-75
2022/02/23 10:25:10;;;;;;;;;36.00;25.50;;;;;;;;4992213;28;46208;-74
2022/02/23 10:27:37;;;;;;;;;41.50;34.00;;;;;;;;4992179;28;45435;-75
2022/02/23 10:30:03;;;;;;;;;46.25;34.50;;;;;;;;4993251;28;45361;-75
2022/02/23 10:32:28;;;;;;;;;35.25;26.75;;;;;;;;4993114;28;45311;-76
2022/02/23 10:34:55;;;;;;;;;31.50;28.00;;;;;;;;4993487;28;46101;-74
2022/02/23 10:37:21;;;;;;;;;40.50;32.75;;;;;;;;4992484;28;45579;-75
2022/02/23 10:39:48;;;;;;;;;37.00;32.25;;;;;;;;4991926;28;45494;-75
2022/02/23 10:42:14;;;;;;;;;39.50;33.00;;;;;;;;4991973;28;45500;-74
2022/02/23 10:44:41;;;;;;;;;39.75;32.25;;;;;;;;4992413;28;45472;-75
2022/02/23 10:47:07;;;;;;;;;44.25;35.75;;;;;;;;4993033;28;45319;-74
2022/02/23 10:49:32;;;;;;;;;41.75;35.25;;;;;;;;4992857;28;45349;-74
2022/02/23 10:52:06;;;;;;;;;36.00;32.75;;;;;;;;4992340;28;45469;-73
2022/02/23 10:54:32;;;;;;;;;43.75;35.25;;;;;;;;4991567;28;45410;-73
2022/02/23 10:56:57;;;;;;;;;43.00;34.75;;;;;;;;4992333;28;45506;-74
2022/02/23 10:59:23;;;;;;;;;46.25;38.00;;;;;;;;4993281;28;45313;-76
2022/02/23 11:01:49;;;;;;;;;35.50;31.75;;;;;;;;4993627;28;45421;-76
2022/02/23 11:04:15;;;;;;;;;13.25;13.00;;;;;;;;4992371;28;45580;-75
2022/02/23 11:06:40;;;;;;;;;10.75;8.25;;;;;;;;4992065;28;45535;-75
2022/02/23 11:09:06;;;;;;;;;8.50;6.50;;;;;;;;4991844;28;45377;-76
2022/02/23 11:11:33;;;;;;;;;19.25;17.25;;;;;;;;4992376;28;45446;-75
2022/02/23 11:13:59;;;;;;;;;4.00;2.00;;;;;;;;4992689;28;46214;-76
2022/02/23 11:16:25;;;;;;;;;2.00;2.00;;;;;;;;4992481;28;45389;-75
2022/02/23 11:18:52;;;;;;;;;1.50;1.25;;;;;;;;4993011;28;45451;-75
2022/02/23 11:21:18;;;;;;;;;0.00;0.00;;;;;;;;4992459;28;45554;-75
2022/02/23 11:23:44;;;;;;;;;1.00;1.00;;;;;;;;4992682;28;47026;-76
2022/02/23 11:26:12;;;;;;;;;5.75;5.00;;;;;;;;4992569;28;45382;-76
2022/02/23 11:28:57;;;;;;;;;2.50;0.25;;;;;;;;4992840;28;45512;-76
2022/02/23 11:31:23;;;;;;;;;4.75;3.25;;;;;;;;4992292;28;45485;-75
2022/02/23 11:33:53;;;;;;;;;3.00;2.00;;;;;;;;4991868;28;46318;-76
2022/02/23 11:36:19;;;;;;;;;1.00;1.00;;;;;;;;4992555;28;45359;-76
2022/02/23 11:38:47;;;;;;;;;0.00;0.00;;;;;;;;4992263;28;45735;-75
2022/02/23 11:41:25;;;;;;;;;3.25;3.00;;;;;;;;4991756;28;45307;-77
2022/02/23 11:44:00;;;;;;;;;1.75;1.75;;;;;;;;4992119;28;46092;-76
2022/02/23 11:46:25;;;;;;;;;1.50;1.25;;;;;;;;4992367;28;45345;-78
2022/02/23 11:48:56;;;;;;;;;4.25;2.00;;;;;;;;5007969;28;45521;-77
2022/02/23 11:51:23;;;;;;;;;5.00;1.75;;;;;;;;4992769;28;45523;-76
2022/02/23 11:53:49;;;;;;;;;1.50;1.50;;;;;;;;4995414;28;45431;-76
2022/02/23 11:56:15;;;;;;;;;7.25;3.75;;;;;;;;4994988;28;45388;-76
2022/02/23 11:58:51;;;;;;;;;4.50;3.00;;;;;;;;4996336;28;45544;-76
2022/02/23 12:01:17;;;;;;;;;2.50;1.00;;;;;;;;4997361;28;45357;-76
2022/02/23 12:04:02;;;;;;;;;3.25;0.75;;;;;;;;4997272;28;46954;-76
2022/02/23 12:06:27;;;;;;;;;2.25;1.25;;;;;;;;4997032;28;45284;-75
2022/02/23 12:08:52;;;;;;;;;3.25;3.25;;;;;;;;4995550;28;45682;-77
2022/02/23 12:11:18;;;;;;;;;5.50;5.50;;;;;;;;4996744;28;45302;-76
2022/02/23 12:13:51;;;;;;;;;0.50;0.50;;;;;;;;4997426;28;47207;-75
2022/02/23 12:16:24;;;;;;;;;7.50;7.00;;;;;;;;4997063;28;45401;-77
2022/02/23 12:18:51;;;;;;;;;10.00;9.25;;;;;;;;4995090;28;45394;-77
2022/02/23 12:21:17;;;;;;;;;3.50;2.50;;;;;;;;4995087;28;45420;-76
2022/02/23 12:23:44;;;;;;;;;5.00;2.75;;;;;;;;4994918;28;45352;-76
2022/02/23 12:26:11;;;;;;;;;6.50;2.75;;;;;;;;4995295;28;45283;-76
2022/02/23 12:28:37;;;;;;;;;1.75;1.75;;;;;;;;4994797;28;45621;-74
2022/02/23 12:31:04;;;;;;;;;3.50;2.00;;;;;;;;4994249;28;45593;-76
2022/02/23 12:33:31;;;;;;;;;2.75;1.25;;;;;;;;4994221;28;46522;-76
2022/02/23 12:35:57;;;;;;;;;1.00;1.00;;;;;;;;4994246;28;45452;-76
2022/02/23 12:38:25;;;;;;;;;3.25;2.75;;;;;;;;4994645;28;45475;-76
2022/02/23 12:40:51;;;;;;;;;5.50;2.75;;;;;;;;4995584;28;45412;-76
2022/02/23 12:43:16;;;;;;;;;2.00;0.00;;;;;;;;4994806;28;45610;-76
2022/02/23 12:45:53;;;;;;;;;3.50;1.50;;;;;;;;4995144;28;45421;-75
2022/02/23 12:48:33;;;;;;;;;5.00;3.00;;;;;;;;4994158;28;45333;-75
2022/02/23 12:51:02;;;;;;;;;2.75;2.00;;;;;;;;4994996;28;45370;-76
2022/02/23 12:53:36;;;;;;;;;5.50;3.50;;;;;;;;4993947;28;46387;-76
2022/02/23 12:56:15;;;;;;;;;3.25;2.00;;;;;;;;4976888;28;45411;-77
2022/02/23 12:58:40;;;;;;;;;4.25;1.00;;;;;;;;4994547;28;45408;-75
2022/02/23 13:01:05;;;;;;;;;1.00;1.00;;;;;;;;4994669;28;45501;-76
2022/02/23 13:03:31;;;;;;;;;3.00;2.00;;;;;;;;4994134;28;45995;-74
2022/02/23 13:05:57;;;;;;;;;6.00;5.00;;;;;;;;4994138;28;45399;-77
2022/02/23 13:08:22;;;;;;;;;2.00;2.00;;;;;;;;4994158;28;45609;-76
2022/02/23 13:10:57;;;;;;;;;2.00;2.00;;;;;;;;4994595;28;45291;-76
2022/02/23 13:13:35;;;;;;;;;3.50;2.50;;;;;;;;4994144;28;47144;-76
2022/02/23 13:16:01;;;;;;;;;4.25;1.50;;;;;;;;4994157;28;45411;-76
2022/02/23 13:18:26;;;;;;;;;3.75;2.25;;;;;;;;4993878;28;45441;-75
2022/02/23 13:21:05;;;;;;;;;5.00;2.00;;;;;;;;4994443;28;45507;-75
2022/02/23 13:23:30;;;;;;;;;4.00;1.00;;;;;;;;4993976;28;45506;-76
2022/02/23 13:26:09;;;;;;;;;2.00;1.00;;;;;;;;4994812;28;45524;-77
2022/02/23 13:28:34;;;;;;;;;4.25;1.00;;;;;;;;4994894;28;45308;-76
2022/02/23 13:30:59;;;;;;;;;2.25;1.00;;;;;;;;4994318;28;45493;-75
2022/02/23 13:33:27;;;;;;;;;2.00;2.00;;;;;;;;4994072;28;45468;-75
2022/02/23 13:35:52;;;;;;;;;1.25;1.25;;;;;;;;4994520;28;45513;-76
2022/02/23 13:38:25;;;;;;;;;1.75;1.25;;;;;;;;4993606;28;45506;-75
2022/02/23 13:40:50;;;;;;;;;1.00;1.00;;;;;;;;4992989;28;45437;-74
2022/02/23 13:43:16;;;;;;;;;1.00;1.00;;;;;;;;4993630;28;47048;-77
2022/02/23 13:45:41;;;;;;;;;1.75;1.00;;;;;;;;5009163;28;45370;-75
2022/02/23 13:48:08;;;;;;;;;2.75;2.00;;;;;;;;4994604;28;45357;-76
2022/02/23 13:50:37;;;;;;;;;2.00;2.00;;;;;;;;4993451;28;45342;-75
2022/02/23 13:53:05;;;;;;;;;3.25;2.00;;;;;;;;4994068;28;45362;-75
2022/02/23 13:55:31;;;;;;;;;3.25;2.75;;;;;;;;4993304;28;45394;-76
2022/02/23 13:58:07;;;;;;;;;3.50;1.25;;;;;;;;4994484;28;45469;-76
2022/02/23 14:00:33;;;;;;;;;3.00;1.00;;;;;;;;4995762;28;45459;-76
2022/02/23 14:03:09;;;;;;;;;1.25;0.00;;;;;;;;4993397;28;46498;-73
2022/02/23 14:05:36;;;;;;;;;2.00;2.00;;;;;;;;4974711;28;45451;-76
2022/02/23 14:08:02;;;;;;;;;2.50;2.50;;;;;;;;4994182;28;45420;-76
2022/02/23 14:10:32;;;;;;;;;1.50;1.50;;;;;;;;4993478;28;45331;-78
2022/02/23 14:13:01;;;;;;;;;1.75;1.75;;;;;;;;4993196;28;46393;-76
2022/02/23 14:15:27;;;;;;;;;1.25;1.25;;;;;;;;4992505;28;45486;-77
2022/02/23 14:17:53;;;;;;;;;0.75;0.75;;;;;;;;4993415;28;45500;-77
2022/02/23 14:20:18;;;;;;;;;5.25;3.00;;;;;;;;4993271;28;45270;-77
2022/02/23 14:22:58;;;;;;;;;2.75;1.00;;;;;;;;4975307;28;47005;-76
2022/02/23 14:25:24;;;;;;;;;1.00;1.00;;;;;;;;4992865;28;45346;-76
2022/02/23 14:27:49;;;;;;;;;3.00;2.00;;;;;;;;4993360;28;45497;-77
2022/02/23 14:30:19;;;;;;;;;1.75;1.75;;;;;;;;4992887;28;45299;-77
2022/02/23 14:32:45;;;;;;;;;0.00;0.00;;;;;;;;4993066;28;45679;-76